sensor_id;sensor_type;location;lat;lon;timestamp;temperature;humidity
6260;DHT22;3163;51.516;4.000;2023-05-14T00:00:42;16.60;99.90
6260;DHT22;3163;51.516;4.000;2023-05-14T00:03:08;16.60;99.90
6260;DHT22;3163;51.516;4.000;2023-05-14T00:05:33;16.60;99.90
6260;DHT22;3163;51.516;4.000;2023-05-14T00:07:59;16.60;99.90
6260;DHT22;3163;51.516;4.000;2023-05-14T00:10:25;16.50;99.90
6260;DHT22;3163;51.516;4.000;2023-05-14T00:12:51;16.60;99.90
6260;DHT22;3163;51.516;4.000;2023-05-14T00:15:17;16.60;99.90
6260;DHT22;3163;51.516;4.000;2023-05-14T00:17:42;16.60;99.90
6260;DHT22;3163;51.516;4.000;2023-05-14T00:20:09;16.60;99.90
6260;DHT22;3163;51.516;4.000;2023-05-14T00:22:37;16.60;99.90
6260;DHT22;3163;51.516;4.000;2023-05-14T00:25:03;16.60;99.90
6260;DHT22;3163;51.516;4.000;2023-05-14T00:27:29;16.60;99.90
6260;DHT22;3163;51.516;4.000;2023-05-14T00:29:54;16.60;99.90
6260;DHT22;3163;51.516;4.000;2023-05-14T00:32:20;16.60;99.90
6260;DHT22;3163;51.516;4.000;2023-05-14T00:34:45;16.60;99.90
6260;DHT22;3163;51.516;4.000;2023-05-14T00:37:11;16.50;99.90
6260;DHT22;3163;51.516;4.000;2023-05-14T00:39:37;16.50;99.90
6260;DHT22;3163;51.516;4.000;2023-05-14T00:42:02;16.50;99.90
6260;DHT22;3163;51.516;4.000;2023-05-14T00:44:28;16.50;99.90
6260;DHT22;3163;51.516;4.000;2023-05-14T00:46:54;16.50;99.90
6260;DHT22;3163;51.516;4.000;2023-05-14T00:49:20;16.60;99.90
6260;DHT22;3163;51.516;4.000;2023-05-14T00:51:46;16.60;99.90
6260;DHT22;3163;51.516;4.000;2023-05-14T00:54:19;16.50;99.90
6260;DHT22;3163;51.516;4.000;2023-05-14T00:56:45;16.50;99.90
6260;DHT22;3163;51.516;4.000;2023-05-14T00:59:12;16.50;99.90
6260;DHT22;3163;51.516;4.000;2023-05-14T01:01:38;16.50;99.90
6260;DHT22;3163;51.516;4.000;2023-05-14T01:04:04;16.50;99.90
6260;DHT22;3163;51.516;4.000;2023-05-14T01:06:53;16.50;99.90
6260;DHT22;3163;51.516;4.000;2023-05-14T01:09:43;16.50;99.90
6260;DHT22;3163;51.516;4.000;2023-05-14T01:12:20;16.40;99.90
6260;DHT22;3163;51.516;4.000;2023-05-14T01:15:05;16.40;99.90
6260;DHT22;3163;51.516;4.000;2023-05-14T01:17:37;16.50;99.90
6260;DHT22;3163;51.516;4.000;2023-05-14T01:20:03;16.50;99.90
6260;DHT22;3163;51.516;4.000;2023-05-14T01:22:30;16.50;99.90
6260;DHT22;3163;51.516;4.000;2023-05-14T01:24:55;16.50;99.90
6260;DHT22;3163;51.516;4.000;2023-05-14T01:27:28;16.40;99.90
6260;DHT22;3163;51.516;4.000;2023-05-14T01:30:11;16.40;99.90
6260;DHT22;3163;51.516;4.000;2023-05-14T01:32:38;16.40;99.90
6260;DHT22;3163;51.516;4.000;2023-05-14T01:35:07;16.40;99.90
6260;DHT22;3163;51.516;4.000;2023-05-14T01:37:34;16.40;99.90
6260;DHT22;3163;51.516;4.000;2023-05-14T01:40:01;16.40;99.90
6260;DHT22;3163;51.516;4.000;2023-05-14T01:42:28;16.40;99.90
6260;DHT22;3163;51.516;4.000;2023-05-14T01:44:54;16.40;99.90
6260;DHT22;3163;51.516;4.000;2023-05-14T01:47:20;16.40;99.90
6260;DHT22;3163;51.516;4.000;2023-05-14T01:49:45;16.40;99.90
6260;DHT22;3163;51.516;4.000;2023-05-14T01:52:11;16.40;99.90
6260;DHT22;3163;51.516;4.000;2023-05-14T01:54:36;16.30;99.90
6260;DHT22;3163;51.516;4.000;2023-05-14T01:57:02;16.40;99.90
6260;DHT22;3163;51.516;4.000;2023-05-14T01:59:28;16.40;99.90
6260;DHT22;3163;51.516;4.000;2023-05-14T02:01:54;16.30;99.90
6260;DHT22;3163;51.516;4.000;2023-05-14T02:04:20;16.30;99.90
6260;DHT22;3163;51.516;4.000;2023-05-14T02:06:45;16.30;99.90
6260;DHT22;3163;51.516;4.000;2023-05-14T02:09:11;16.20;99.90
6260;DHT22;3163;51.516;4.000;2023-05-14T02:11:36;16.30;99.90
6260;DHT22;3163;51.516;4.000;2023-05-14T02:14:02;16.30;99.90
6260;DHT22;3163;51.516;4.000;2023-05-14T02:16:28;16.20;99.90
6260;DHT22;3163;51.516;4.000;2023-05-14T02:18:53;16.30;99.90
6260;DHT22;3163;51.516;4.000;2023-05-14T02:21:19;16.30;99.90
6260;DHT22;3163;51.516;4.000;2023-05-14T02:23:44;16.30;99.90
6260;DHT22;3163;51.516;4.000;2023-05-14T02:26:10;16.30;99.90
6260;DHT22;3163;51.516;4.000;2023-05-14T02:28:36;16.30;99.90
6260;DHT22;3163;51.516;4.000;2023-05-14T02:31:02;16.20;99.90
6260;DHT22;3163;51.516;4.000;2023-05-14T02:33:27;16.20;99.90
6260;DHT22;3163;51.516;4.000;2023-05-14T02:35:53;16.20;99.90
6260;DHT22;3163;51.516;4.000;2023-05-14T02:38:19;16.20;99.90
6260;DHT22;3163;51.516;4.000;2023-05-14T02:40:45;16.20;99.90
6260;DHT22;3163;51.516;4.000;2023-05-14T02:43:10;16.20;99.90
6260;DHT22;3163;51.516;4.000;2023-05-14T02:45:36;16.20;99.90
6260;DHT22;3163;51.516;4.000;2023-05-14T02:48:01;16.20;99.90
6260;DHT22;3163;51.516;4.000;2023-05-14T02:50:27;16.30;99.90
6260;DHT22;3163;51.516;4.000;2023-05-14T02:52:53;16.20;99.90
6260;DHT22;3163;51.516;4.000;2023-05-14T02:55:18;16.20;99.90
6260;DHT22;3163;51.516;4.000;2023-05-14T02:57:44;16.20;99.90
6260;DHT22;3163;51.516;4.000;2023-05-14T03:00:10;16.20;99.90
6260;DHT22;3163;51.516;4.000;2023-05-14T03:02:36;16.20;99.90
6260;DHT22;3163;51.516;4.000;2023-05-14T03:05:01;16.20;99.90
6260;DHT22;3163;51.516;4.000;2023-05-14T03:07:27;16.20;99.90
6260;DHT22;3163;51.516;4.000;2023-05-14T03:09:53;16.20;99.90
6260;DHT22;3163;51.516;4.000;2023-05-14T03:12:19;16.10;99.90
6260;DHT22;3163;51.516;4.000;2023-05-14T03:14:45;16.10;99.90
6260;DHT22;3163;51.516;4.000;2023-05-14T03:17:10;16.10;99.90
6260;DHT22;3163;51.516;4.000;2023-05-14T03:19:36;16.10;99.90
6260;DHT22;3163;51.516;4.000;2023-05-14T03:22:02;16.20;99.90
6260;DHT22;3163;51.516;4.000;2023-05-14T03:24:28;16.10;99.90
6260;DHT22;3163;51.516;4.000;2023-05-14T03:26:53;16.10;99.90
6260;DHT22;3163;51.516;4.000;2023-05-14T03:29:19;16.10;99.90
6260;DHT22;3163;51.516;4.000;2023-05-14T03:31:44;16.10;99.90
6260;DHT22;3163;51.516;4.000;2023-05-14T03:34:10;16.10;99.90
6260;DHT22;3163;51.516;4.000;2023-05-14T03:36:36;16.10;99.90
6260;DHT22;3163;51.516;4.000;2023-05-14T03:39:03;16.10;99.90
6260;DHT22;3163;51.516;4.000;2023-05-14T03:41:31;16.00;99.90
6260;DHT22;3163;51.516;4.000;2023-05-14T03:43:56;16.00;99.90
6260;DHT22;3163;51.516;4.000;2023-05-14T03:46:22;16.00;99.90
6260;DHT22;3163;51.516;4.000;2023-05-14T03:48:47;16.00;99.90
6260;DHT22;3163;51.516;4.000;2023-05-14T03:51:13;16.00;99.90
6260;DHT22;3163;51.516;4.000;2023-05-14T03:53:39;16.10;99.90
6260;DHT22;3163;51.516;4.000;2023-05-14T03:56:04;16.10;99.90
6260;DHT22;3163;51.516;4.000;2023-05-14T03:58:30;16.10;99.90
6260;DHT22;3163;51.516;4.000;2023-05-14T04:00:56;16.10;99.90
6260;DHT22;3163;51.516;4.000;2023-05-14T04:03:21;16.00;99.90
6260;DHT22;3163;51.516;4.000;2023-05-14T04:05:47;16.00;99.90
6260;DHT22;3163;51.516;4.000;2023-05-14T04:08:12;16.00;99.90
6260;DHT22;3163;51.516;4.000;2023-05-14T04:10:38;16.00;99.90
6260;DHT22;3163;51.516;4.000;2023-05-14T04:13:04;16.00;99.90
6260;DHT22;3163;51.516;4.000;2023-05-14T04:15:29;16.00;99.90
6260;DHT22;3163;51.516;4.000;2023-05-14T04:17:55;16.00;99.90
6260;DHT22;3163;51.516;4.000;2023-05-14T04:20:20;16.00;99.90
6260;DHT22;3163;51.516;4.000;2023-05-14T04:22:46;16.00;99.90
6260;DHT22;3163;51.516;4.000;2023-05-14T04:25:12;16.10;99.90
6260;DHT22;3163;51.516;4.000;2023-05-14T04:27:37;16.20;99.90
6260;DHT22;3163;51.516;4.000;2023-05-14T04:30:03;16.20;99.90
6260;DHT22;3163;51.516;4.000;2023-05-14T04:32:29;16.10;99.90
6260;DHT22;3163;51.516;4.000;2023-05-14T04:34:54;16.10;99.90
6260;DHT22;3163;51.516;4.000;2023-05-14T04:37:20;16.10;99.90
6260;DHT22;3163;51.516;4.000;2023-05-14T04:39:46;16.20;99.90
6260;DHT22;3163;51.516;4.000;2023-05-14T04:42:11;16.30;99.90
6260;DHT22;3163;51.516;4.000;2023-05-14T04:44:37;16.30;99.90
6260;DHT22;3163;51.516;4.000;2023-05-14T04:47:03;16.30;99.90
6260;DHT22;3163;51.516;4.000;2023-05-14T04:49:29;16.40;99.90
6260;DHT22;3163;51.516;4.000;2023-05-14T04:51:55;16.20;99.90
6260;DHT22;3163;51.516;4.000;2023-05-14T04:54:21;16.20;99.90
6260;DHT22;3163;51.516;4.000;2023-05-14T04:56:46;16.40;99.90
6260;DHT22;3163;51.516;4.000;2023-05-14T04:59:12;16.40;99.90
6260;DHT22;3163;51.516;4.000;2023-05-14T05:01:38;16.40;99.90
6260;DHT22;3163;51.516;4.000;2023-05-14T05:04:03;16.40;99.90
6260;DHT22;3163;51.516;4.000;2023-05-14T05:06:29;16.40;99.90
6260;DHT22;3163;51.516;4.000;2023-05-14T05:08:55;16.40;99.90
6260;DHT22;3163;51.516;4.000;2023-05-14T05:11:21;16.50;99.90
6260;DHT22;3163;51.516;4.000;2023-05-14T05:13:47;16.60;99.90
6260;DHT22;3163;51.516;4.000;2023-05-14T05:16:12;16.50;99.90
6260;DHT22;3163;51.516;4.000;2023-05-14T05:18:38;16.50;99.90
6260;DHT22;3163;51.516;4.000;2023-05-14T05:21:04;16.40;99.90
6260;DHT22;3163;51.516;4.000;2023-05-14T05:23:31;16.40;99.90
6260;DHT22;3163;51.516;4.000;2023-05-14T05:25:56;16.40;99.90
6260;DHT22;3163;51.516;4.000;2023-05-14T05:28:22;16.30;99.90
6260;DHT22;3163;51.516;4.000;2023-05-14T05:30:47;16.40;99.90
6260;DHT22;3163;51.516;4.000;2023-05-14T05:33:13;16.40;99.90
6260;DHT22;3163;51.516;4.000;2023-05-14T05:35:39;16.50;99.90
6260;DHT22;3163;51.516;4.000;2023-05-14T05:38:04;16.50;99.90
6260;DHT22;3163;51.516;4.000;2023-05-14T05:40:30;16.60;99.90
6260;DHT22;3163;51.516;4.000;2023-05-14T05:42:56;16.60;99.90
6260;DHT22;3163;51.516;4.000;2023-05-14T05:45:21;16.70;99.90
6260;DHT22;3163;51.516;4.000;2023-05-14T05:47:47;16.60;99.90
6260;DHT22;3163;51.516;4.000;2023-05-14T05:50:12;16.60;99.90
6260;DHT22;3163;51.516;4.000;2023-05-14T05:52:39;16.60;99.90
6260;DHT22;3163;51.516;4.000;2023-05-14T05:55:05;16.40;99.90
6260;DHT22;3163;51.516;4.000;2023-05-14T05:57:31;16.40;99.90
6260;DHT22;3163;51.516;4.000;2023-05-14T05:59:56;16.50;99.90
6260;DHT22;3163;51.516;4.000;2023-05-14T06:02:22;16.50;99.90
6260;DHT22;3163;51.516;4.000;2023-05-14T06:04:49;16.60;99.90
6260;DHT22;3163;51.516;4.000;2023-05-14T06:07:15;16.60;99.90
6260;DHT22;3163;51.516;4.000;2023-05-14T06:09:40;16.70;99.90
6260;DHT22;3163;51.516;4.000;2023-05-14T06:12:06;16.80;99.90
6260;DHT22;3163;51.516;4.000;2023-05-14T06:14:32;16.90;99.90
6260;DHT22;3163;51.516;4.000;2023-05-14T06:16:57;16.80;99.90
6260;DHT22;3163;51.516;4.000;2023-05-14T06:19:23;16.80;99.90
6260;DHT22;3163;51.516;4.000;2023-05-14T06:21:48;16.70;99.90
6260;DHT22;3163;51.516;4.000;2023-05-14T06:24:14;16.80;99.90
6260;DHT22;3163;51.516;4.000;2023-05-14T06:26:40;16.60;99.90
6260;DHT22;3163;51.516;4.000;2023-05-14T06:29:06;16.70;99.90
6260;DHT22;3163;51.516;4.000;2023-05-14T06:31:32;16.90;99.90
6260;DHT22;3163;51.516;4.000;2023-05-14T06:33:57;16.90;99.90
6260;DHT22;3163;51.516;4.000;2023-05-14T06:36:23;17.00;99.90
6260;DHT22;3163;51.516;4.000;2023-05-14T06:38:48;17.00;99.90
6260;DHT22;3163;51.516;4.000;2023-05-14T06:41:14;17.00;99.90
6260;DHT22;3163;51.516;4.000;2023-05-14T06:43:39;17.00;99.90
6260;DHT22;3163;51.516;4.000;2023-05-14T06:46:05;17.00;99.90
6260;DHT22;3163;51.516;4.000;2023-05-14T06:48:31;16.90;99.90
6260;DHT22;3163;51.516;4.000;2023-05-14T06:50:57;17.00;99.90
6260;DHT22;3163;51.516;4.000;2023-05-14T06:53:22;17.00;99.90
6260;DHT22;3163;51.516;4.000;2023-05-14T06:55:48;17.00;99.90
6260;DHT22;3163;51.516;4.000;2023-05-14T06:58:13;16.90;99.90
6260;DHT22;3163;51.516;4.000;2023-05-14T07:00:39;16.80;99.90
6260;DHT22;3163;51.516;4.000;2023-05-14T07:03:05;16.90;99.90
6260;DHT22;3163;51.516;4.000;2023-05-14T07:05:30;16.90;99.90
6260;DHT22;3163;51.516;4.000;2023-05-14T07:07:56;16.90;99.90
6260;DHT22;3163;51.516;4.000;2023-05-14T07:10:22;17.00;99.90
6260;DHT22;3163;51.516;4.000;2023-05-14T07:12:48;16.90;99.90
6260;DHT22;3163;51.516;4.000;2023-05-14T07:15:13;16.90;99.90
6260;DHT22;3163;51.516;4.000;2023-05-14T07:17:40;16.90;99.90
6260;DHT22;3163;51.516;4.000;2023-05-14T07:20:06;16.80;99.90
6260;DHT22;3163;51.516;4.000;2023-05-14T07:22:31;16.90;99.90
6260;DHT22;3163;51.516;4.000;2023-05-14T07:24:57;17.10;99.90
6260;DHT22;3163;51.516;4.000;2023-05-14T07:27:23;16.90;99.90
6260;DHT22;3163;51.516;4.000;2023-05-14T07:29:49;16.70;99.90
6260;DHT22;3163;51.516;4.000;2023-05-14T07:32:15;16.90;99.90
6260;DHT22;3163;51.516;4.000;2023-05-14T07:34:40;16.90;99.90
6260;DHT22;3163;51.516;4.000;2023-05-14T07:37:06;16.90;99.90
6260;DHT22;3163;51.516;4.000;2023-05-14T07:39:32;17.00;99.90
6260;DHT22;3163;51.516;4.000;2023-05-14T07:41:57;17.00;99.90
6260;DHT22;3163;51.516;4.000;2023-05-14T07:44:23;17.10;99.90
6260;DHT22;3163;51.516;4.000;2023-05-14T07:46:48;17.20;99.90
6260;DHT22;3163;51.516;4.000;2023-05-14T07:49:14;17.10;99.90
6260;DHT22;3163;51.516;4.000;2023-05-14T07:51:39;17.10;99.90
6260;DHT22;3163;51.516;4.000;2023-05-14T07:54:05;17.10;99.90
6260;DHT22;3163;51.516;4.000;2023-05-14T07:56:31;17.10;99.90
6260;DHT22;3163;51.516;4.000;2023-05-14T07:58:56;17.10;99.90
6260;DHT22;3163;51.516;4.000;2023-05-14T08:01:22;16.90;99.90
6260;DHT22;3163;51.516;4.000;2023-05-14T08:03:48;17.00;99.90
6260;DHT22;3163;51.516;4.000;2023-05-14T08:06:13;17.40;99.90
6260;DHT22;3163;51.516;4.000;2023-05-14T08:08:39;17.40;99.90
6260;DHT22;3163;51.516;4.000;2023-05-14T08:11:05;17.50;99.90
6260;DHT22;3163;51.516;4.000;2023-05-14T08:13:30;17.40;99.90
6260;DHT22;3163;51.516;4.000;2023-05-14T08:15:56;17.50;99.90
6260;DHT22;3163;51.516;4.000;2023-05-14T08:18:22;17.60;99.90
6260;DHT22;3163;51.516;4.000;2023-05-14T08:20:47;17.70;99.90
6260;DHT22;3163;51.516;4.000;2023-05-14T08:23:13;17.80;99.90
6260;DHT22;3163;51.516;4.000;2023-05-14T08:25:38;17.80;99.90
6260;DHT22;3163;51.516;4.000;2023-05-14T08:28:04;17.90;99.90
6260;DHT22;3163;51.516;4.000;2023-05-14T08:30:30;17.90;99.90
6260;DHT22;3163;51.516;4.000;2023-05-14T08:32:56;17.70;99.90
6260;DHT22;3163;51.516;4.000;2023-05-14T08:35:22;17.70;99.90
6260;DHT22;3163;51.516;4.000;2023-05-14T08:37:48;17.90;99.90
6260;DHT22;3163;51.516;4.000;2023-05-14T08:40:14;18.00;99.90
6260;DHT22;3163;51.516;4.000;2023-05-14T08:42:40;18.20;99.90
6260;DHT22;3163;51.516;4.000;2023-05-14T08:45:11;18.20;99.90
6260;DHT22;3163;51.516;4.000;2023-05-14T08:47:38;18.20;99.90
6260;DHT22;3163;51.516;4.000;2023-05-14T08:50:05;18.20;99.90
6260;DHT22;3163;51.516;4.000;2023-05-14T08:52:32;18.20;99.90
6260;DHT22;3163;51.516;4.000;2023-05-14T08:55:02;18.30;99.90
6260;DHT22;3163;51.516;4.000;2023-05-14T08:57:29;18.40;99.90
6260;DHT22;3163;51.516;4.000;2023-05-14T08:59:56;18.50;99.90
6260;DHT22;3163;51.516;4.000;2023-05-14T09:02:24;18.70;99.90
6260;DHT22;3163;51.516;4.000;2023-05-14T09:04:55;18.60;99.90
6260;DHT22;3163;51.516;4.000;2023-05-14T09:07:22;18.60;99.90
6260;DHT22;3163;51.516;4.000;2023-05-14T09:09:48;18.60;99.90
6260;DHT22;3163;51.516;4.000;2023-05-14T09:12:14;18.60;99.90
6260;DHT22;3163;51.516;4.000;2023-05-14T09:14:40;18.70;99.90
6260;DHT22;3163;51.516;4.000;2023-05-14T09:17:06;18.60;99.90
6260;DHT22;3163;51.516;4.000;2023-05-14T09:19:32;18.80;99.90
6260;DHT22;3163;51.516;4.000;2023-05-14T09:21:57;18.80;99.90
6260;DHT22;3163;51.516;4.000;2023-05-14T09:24:25;19.00;99.90
6260;DHT22;3163;51.516;4.000;2023-05-14T09:26:53;19.00;99.90
6260;DHT22;3163;51.516;4.000;2023-05-14T09:29:19;19.10;99.90
6260;DHT22;3163;51.516;4.000;2023-05-14T09:31:44;19.30;99.90
6260;DHT22;3163;51.516;4.000;2023-05-14T09:34:10;19.40;99.90
6260;DHT22;3163;51.516;4.000;2023-05-14T09:36:36;18.60;99.90
6260;DHT22;3163;51.516;4.000;2023-05-14T09:39:04;18.80;99.90
6260;DHT22;3163;51.516;4.000;2023-05-14T09:41:30;19.50;99.90
6260;DHT22;3163;51.516;4.000;2023-05-14T09:43:56;19.50;99.90
6260;DHT22;3163;51.516;4.000;2023-05-14T09:46:22;19.60;99.90
6260;DHT22;3163;51.516;4.000;2023-05-14T09:48:48;19.70;99.90
6260;DHT22;3163;51.516;4.000;2023-05-14T09:51:15;19.90;99.90
6260;DHT22;3163;51.516;4.000;2023-05-14T09:53:43;20.00;99.90
6260;DHT22;3163;51.516;4.000;2023-05-14T09:56:09;20.10;99.90
6260;DHT22;3163;51.516;4.000;2023-05-14T09:58:35;20.00;99.90
6260;DHT22;3163;51.516;4.000;2023-05-14T10:01:00;20.20;99.90
6260;DHT22;3163;51.516;4.000;2023-05-14T10:03:28;20.20;99.90
6260;DHT22;3163;51.516;4.000;2023-05-14T10:05:57;20.30;99.90
6260;DHT22;3163;51.516;4.000;2023-05-14T10:08:29;20.20;99.90
6260;DHT22;3163;51.516;4.000;2023-05-14T10:10:58;20.10;99.90
6260;DHT22;3163;51.516;4.000;2023-05-14T10:13:36;20.40;99.90
6260;DHT22;3163;51.516;4.000;2023-05-14T10:16:27;20.50;99.90
6260;DHT22;3163;51.516;4.000;2023-05-14T10:18:59;20.70;99.90
6260;DHT22;3163;51.516;4.000;2023-05-14T10:21:25;20.70;99.90
6260;DHT22;3163;51.516;4.000;2023-05-14T10:23:53;21.00;99.90
6260;DHT22;3163;51.516;4.000;2023-05-14T10:26:18;21.00;99.90
6260;DHT22;3163;51.516;4.000;2023-05-14T10:28:45;20.90;99.90
6260;DHT22;3163;51.516;4.000;2023-05-14T10:31:11;20.90;99.90
6260;DHT22;3163;51.516;4.000;2023-05-14T10:33:47;20.80;99.90
6260;DHT22;3163;51.516;4.000;2023-05-14T10:36:16;20.90;99.90
6260;DHT22;3163;51.516;4.000;2023-05-14T10:38:42;21.00;99.90
6260;DHT22;3163;51.516;4.000;2023-05-14T10:41:13;20.90;99.90
6260;DHT22;3163;51.516;4.000;2023-05-14T10:43:47;21.00;99.90
6260;DHT22;3163;51.516;4.000;2023-05-14T10:46:14;21.20;99.90
6260;DHT22;3163;51.516;4.000;2023-05-14T10:48:41;21.20;99.90
6260;DHT22;3163;51.516;4.000;2023-05-14T10:51:08;21.40;99.90
6260;DHT22;3163;51.516;4.000;2023-05-14T10:53:39;21.50;99.90
6260;DHT22;3163;51.516;4.000;2023-05-14T10:56:09;21.40;99.90
6260;DHT22;3163;51.516;4.000;2023-05-14T10:58:37;21.50;99.90
6260;DHT22;3163;51.516;4.000;2023-05-14T11:01:04;21.60;99.90
6260;DHT22;3163;51.516;4.000;2023-05-14T11:03:31;21.70;99.90
6260;DHT22;3163;51.516;4.000;2023-05-14T11:05:59;21.60;99.90
6260;DHT22;3163;51.516;4.000;2023-05-14T11:08:27;21.60;99.90
6260;DHT22;3163;51.516;4.000;2023-05-14T11:10:54;21.20;99.90
6260;DHT22;3163;51.516;4.000;2023-05-14T11:13:20;21.20;99.90
6260;DHT22;3163;51.516;4.000;2023-05-14T11:15:46;21.60;99.90
6260;DHT22;3163;51.516;4.000;2023-05-14T11:18:13;21.90;99.90
6260;DHT22;3163;51.516;4.000;2023-05-14T11:20:39;22.00;99.90
6260;DHT22;3163;51.516;4.000;2023-05-14T11:23:04;22.20;99.90
6260;DHT22;3163;51.516;4.000;2023-05-14T11:25:30;22.20;99.90
6260;DHT22;3163;51.516;4.000;2023-05-14T11:27:56;22.10;99.90
6260;DHT22;3163;51.516;4.000;2023-05-14T11:30:23;22.00;99.90
6260;DHT22;3163;51.516;4.000;2023-05-14T11:32:49;22.00;99.90
6260;DHT22;3163;51.516;4.000;2023-05-14T11:35:16;22.10;99.90
6260;DHT22;3163;51.516;4.000;2023-05-14T11:37:42;22.10;99.90
6260;DHT22;3163;51.516;4.000;2023-05-14T11:40:13;22.20;99.90
6260;DHT22;3163;51.516;4.000;2023-05-14T11:42:39;21.50;99.90
6260;DHT22;3163;51.516;4.000;2023-05-14T11:45:05;21.80;99.90
6260;DHT22;3163;51.516;4.000;2023-05-14T11:47:31;22.00;99.90
6260;DHT22;3163;51.516;4.000;2023-05-14T11:49:58;22.10;99.90
6260;DHT22;3163;51.516;4.000;2023-05-14T11:52:24;22.20;99.90
6260;DHT22;3163;51.516;4.000;2023-05-14T11:54:50;22.30;99.90
6260;DHT22;3163;51.516;4.000;2023-05-14T11:57:18;22.30;99.90
6260;DHT22;3163;51.516;4.000;2023-05-14T11:59:45;22.20;99.90
6260;DHT22;3163;51.516;4.000;2023-05-14T12:02:12;22.30;99.90
6260;DHT22;3163;51.516;4.000;2023-05-14T12:04:39;22.20;99.90
6260;DHT22;3163;51.516;4.000;2023-05-14T12:07:10;22.20;99.90
6260;DHT22;3163;51.516;4.000;2023-05-14T12:09:38;22.20;99.90
6260;DHT22;3163;51.516;4.000;2023-05-14T12:12:10;22.30;99.90
6260;DHT22;3163;51.516;4.000;2023-05-14T12:14:37;22.20;99.90
6260;DHT22;3163;51.516;4.000;2023-05-14T12:17:10;22.10;99.90
6260;DHT22;3163;51.516;4.000;2023-05-14T12:19:39;22.30;99.90
6260;DHT22;3163;51.516;4.000;2023-05-14T12:22:06;22.30;99.90
6260;DHT22;3163;51.516;4.000;2023-05-14T12:24:32;22.40;99.90
6260;DHT22;3163;51.516;4.000;2023-05-14T12:27:00;22.40;99.90
6260;DHT22;3163;51.516;4.000;2023-05-14T12:29:26;22.50;99.90
6260;DHT22;3163;51.516;4.000;2023-05-14T12:31:52;22.40;99.90
6260;DHT22;3163;51.516;4.000;2023-05-14T12:34:17;22.50;99.90
6260;DHT22;3163;51.516;4.000;2023-05-14T12:36:43;22.50;99.90
6260;DHT22;3163;51.516;4.000;2023-05-14T12:39:10;22.20;99.90
6260;DHT22;3163;51.516;4.000;2023-05-14T12:41:36;22.60;99.90
6260;DHT22;3163;51.516;4.000;2023-05-14T12:44:03;22.00;99.90
6260;DHT22;3163;51.516;4.000;2023-05-14T12:46:29;22.30;99.90
6260;DHT22;3163;51.516;4.000;2023-05-14T12:48:55;22.40;99.90
6260;DHT22;3163;51.516;4.000;2023-05-14T12:51:21;22.20;99.90
6260;DHT22;3163;51.516;4.000;2023-05-14T12:53:47;22.30;99.90
6260;DHT22;3163;51.516;4.000;2023-05-14T12:56:13;22.30;99.90
6260;DHT22;3163;51.516;4.000;2023-05-14T12:58:39;22.20;99.90
6260;DHT22;3163;51.516;4.000;2023-05-14T13:01:05;22.00;99.90
6260;DHT22;3163;51.516;4.000;2023-05-14T13:03:31;22.00;99.90
6260;DHT22;3163;51.516;4.000;2023-05-14T13:05:56;22.10;99.90
6260;DHT22;3163;51.516;4.000;2023-05-14T13:08:23;22.00;99.90
6260;DHT22;3163;51.516;4.000;2023-05-14T13:10:52;22.00;99.90
6260;DHT22;3163;51.516;4.000;2023-05-14T13:13:18;21.80;99.90
6260;DHT22;3163;51.516;4.000;2023-05-14T13:15:44;21.60;99.90
6260;DHT22;3163;51.516;4.000;2023-05-14T13:18:12;21.70;99.90
6260;DHT22;3163;51.516;4.000;2023-05-14T13:20:37;21.80;99.90
6260;DHT22;3163;51.516;4.000;2023-05-14T13:23:03;21.70;99.90
6260;DHT22;3163;51.516;4.000;2023-05-14T13:25:29;21.70;99.90
6260;DHT22;3163;51.516;4.000;2023-05-14T13:27:54;21.30;99.90
6260;DHT22;3163;51.516;4.000;2023-05-14T13:30:20;21.30;99.90
6260;DHT22;3163;51.516;4.000;2023-05-14T13:35:12;21.50;99.90
6260;DHT22;3163;51.516;4.000;2023-05-14T13:37:38;21.50;99.90
6260;DHT22;3163;51.516;4.000;2023-05-14T13:40:04;21.20;99.90
6260;DHT22;3163;51.516;4.000;2023-05-14T13:42:33;21.30;99.90
6260;DHT22;3163;51.516;4.000;2023-05-14T13:44:59;21.00;99.90
6260;DHT22;3163;51.516;4.000;2023-05-14T13:47:25;20.60;99.90
6260;DHT22;3163;51.516;4.000;2023-05-14T13:49:55;21.10;99.90
6260;DHT22;3163;51.516;4.000;2023-05-14T13:52:21;21.10;99.90
6260;DHT22;3163;51.516;4.000;2023-05-14T13:54:47;21.30;99.90
6260;DHT22;3163;51.516;4.000;2023-05-14T13:57:13;21.30;99.90
6260;DHT22;3163;51.516;4.000;2023-05-14T13:59:39;21.20;99.90
6260;DHT22;3163;51.516;4.000;2023-05-14T14:02:04;21.30;99.90
6260;DHT22;3163;51.516;4.000;2023-05-14T14:04:30;21.40;99.90
6260;DHT22;3163;51.516;4.000;2023-05-14T14:06:56;21.20;99.90
6260;DHT22;3163;51.516;4.000;2023-05-14T14:09:22;21.30;99.90
6260;DHT22;3163;51.516;4.000;2023-05-14T14:11:48;21.30;99.90
6260;DHT22;3163;51.516;4.000;2023-05-14T14:14:14;21.20;99.90
6260;DHT22;3163;51.516;4.000;2023-05-14T14:16:40;20.60;99.90
6260;DHT22;3163;51.516;4.000;2023-05-14T14:19:06;20.70;99.90
6260;DHT22;3163;51.516;4.000;2023-05-14T14:21:31;21.00;99.90
6260;DHT22;3163;51.516;4.000;2023-05-14T14:23:58;21.00;99.90
6260;DHT22;3163;51.516;4.000;2023-05-14T14:26:23;20.80;99.90
6260;DHT22;3163;51.516;4.000;2023-05-14T14:28:49;21.00;99.90
6260;DHT22;3163;51.516;4.000;2023-05-14T14:31:15;21.00;99.90
6260;DHT22;3163;51.516;4.000;2023-05-14T14:33:41;20.70;99.90
6260;DHT22;3163;51.516;4.000;2023-05-14T14:36:07;20.40;99.90
6260;DHT22;3163;51.516;4.000;2023-05-14T14:38:33;20.30;99.90
6260;DHT22;3163;51.516;4.000;2023-05-14T14:40:59;20.70;99.90
6260;DHT22;3163;51.516;4.000;2023-05-14T14:43:27;20.40;99.90
6260;DHT22;3163;51.516;4.000;2023-05-14T14:45:53;20.00;99.90
6260;DHT22;3163;51.516;4.000;2023-05-14T14:50:59;20.60;99.90
6260;DHT22;3163;51.516;4.000;2023-05-14T14:53:26;20.60;99.90
6260;DHT22;3163;51.516;4.000;2023-05-14T14:55:52;20.70;99.90
6260;DHT22;3163;51.516;4.000;2023-05-14T14:58:18;20.70;99.90
6260;DHT22;3163;51.516;4.000;2023-05-14T15:00:45;20.50;99.90
6260;DHT22;3163;51.516;4.000;2023-05-14T15:03:11;20.60;99.90
6260;DHT22;3163;51.516;4.000;2023-05-14T15:05:38;20.50;99.90
6260;DHT22;3163;51.516;4.000;2023-05-14T15:08:04;20.60;99.90
6260;DHT22;3163;51.516;4.000;2023-05-14T15:10:30;20.60;99.90
6260;DHT22;3163;51.516;4.000;2023-05-14T15:12:59;20.60;99.90
6260;DHT22;3163;51.516;4.000;2023-05-14T15:15:25;20.50;99.90
6260;DHT22;3163;51.516;4.000;2023-05-14T15:17:51;20.40;99.90
6260;DHT22;3163;51.516;4.000;2023-05-14T15:20:17;20.40;99.90
6260;DHT22;3163;51.516;4.000;2023-05-14T15:22:42;20.40;99.90
6260;DHT22;3163;51.516;4.000;2023-05-14T15:25:08;20.40;99.90
6260;DHT22;3163;51.516;4.000;2023-05-14T15:27:34;20.70;99.90
6260;DHT22;3163;51.516;4.000;2023-05-14T15:30:00;20.70;99.90
6260;DHT22;3163;51.516;4.000;2023-05-14T15:32:25;20.80;99.90
6260;DHT22;3163;51.516;4.000;2023-05-14T15:34:55;20.40;99.90
6260;DHT22;3163;51.516;4.000;2023-05-14T15:37:23;20.60;99.90
6260;DHT22;3163;51.516;4.000;2023-05-14T15:39:49;20.70;99.90
6260;DHT22;3163;51.516;4.000;2023-05-14T15:42:14;20.40;99.90
6260;DHT22;3163;51.516;4.000;2023-05-14T15:44:40;20.50;99.90
6260;DHT22;3163;51.516;4.000;2023-05-14T15:47:05;20.10;99.90
6260;DHT22;3163;51.516;4.000;2023-05-14T15:49:31;20.40;99.90
6260;DHT22;3163;51.516;4.000;2023-05-14T15:51:57;20.50;99.90
6260;DHT22;3163;51.516;4.000;2023-05-14T15:54:25;20.50;99.90
6260;DHT22;3163;51.516;4.000;2023-05-14T15:56:51;20.50;99.90
6260;DHT22;3163;51.516;4.000;2023-05-14T15:59:17;20.50;99.90
6260;DHT22;3163;51.516;4.000;2023-05-14T16:01:43;20.50;99.90